Time;durP1;ratioP1;P1;durP2;ratioP2;P2;SDS_P1;SDS_P2;PMS_P1;PMS_P2;Temp;Humidity;BMP_temperature;BMP_pressure;BME280_temperature;BME280_humidity;BME280_pressure;Samples;Min_cycle;Max_cycle;Signal;HPM_P1;HPM_P2
2023/06/21 00:01:46;;;;;;;3.20;1.40;;;27.90;49.20;;;;;;5039921;28;20363;-70
2023/06/21 00:04:12;;;;;;;2.50;1.30;;;27.90;49.20;;;;;;5036296;28;20078;-70
2023/06/21 00:06:38;;;;;;;4.15;1.60;;;27.90;49.20;;;;;;5036675;28;20041;-70
2023/06/21 00:09:03;;;;;;;2.85;1.30;;;27.90;49.20;;;;;;5040895;28;20515;-70
2023/06/21 00:11:32;;;;;;;2.67;1.30;;;27.90;49.20;;;;;;5039164;28;20033;-70
2023/06/21 00:13:58;;;;;;;3.97;1.60;;;27.90;49.10;;;;;;5038646;28;20060;-70
2023/06/21 00:16:24;;;;;;;5.53;2.00;;;27.90;49.10;;;;;;5044567;28;20032;-70
2023/06/21 00:18:49;;;;;;;2.60;1.20;;;27.90;49.10;;;;;;5042099;28;20024;-70
2023/06/21 00:21:15;;;;;;;2.60;1.40;;;27.90;49.10;;;;;;5054744;28;20025;-70
2023/06/21 00:23:43;;;;;;;2.88;1.20;;;27.90;49.10;;;;;;5038284;28;20565;-70
2023/06/21 00:26:08;;;;;;;3.72;1.42;;;27.90;49.10;;;;;;5038749;28;20484;-70
2023/06/21 00:28:34;;;;;;;3.10;1.40;;;27.90;49.10;;;;;;5036766;28;20033;-70
2023/06/21 00:30:59;;;;;;;2.65;1.20;;;27.90;49.10;;;;;;5039472;28;20028;-70
2023/06/21 00:33:25;;;;;;;2.75;1.48;;;27.80;49.00;;;;;;5038704;28;20032;-70
2023/06/21 00:35:51;;;;;;;3.05;1.42;;;27.80;49.00;;;;;;5038785;28;20060;-70
2023/06/21 00:38:17;;;;;;;3.60;1.42;;;27.80;49.00;;;;;;5039784;28;21010;-70
2023/06/21 00:40:43;;;;;;;3.50;1.58;;;27.90;49.10;;;;;;5039737;28;20027;-70
2023/06/21 00:43:09;;;;;;;3.67;1.50;;;27.80;49.50;;;;;;5037221;28;20435;-70
2023/06/21 00:45:40;;;;;;;4.05;1.30;;;27.80;48.90;;;;;;5039403;28;20044;-70
2023/06/21 00:48:08;;;;;;;2.55;1.23;;;27.80;48.90;;;;;;5036284;28;20033;-70
2023/06/21 00:50:35;;;;;;;3.22;1.52;;;27.80;49.50;;;;;;5037153;28;20488;-70
2023/06/21 00:53:00;;;;;;;3.15;1.38;;;27.80;48.90;;;;;;5037910;28;20095;-70
2023/06/21 00:55:26;;;;;;;3.20;1.50;;;27.80;48.90;;;;;;5037851;28;20869;-70
2023/06/21 00:57:52;;;;;;;3.78;1.60;;;27.80;48.90;;;;;;5040333;28;20020;-70
2023/06/21 01:00:22;;;;;;;2.72;1.25;;;27.80;48.90;;;;;;5038558;28;20375;-70
2023/06/21 01:02:56;;;;;;;3.05;1.30;;;27.80;48.90;;;;;;5038210;28;20036;-70
2023/06/21 01:05:24;;;;;;;2.78;1.40;;;27.80;48.80;;;;;;5037421;28;20021;-70
2023/06/21 01:08:28;;;;;;;2.72;1.30;;;27.80;48.80;;;;;;5035712;28;20112;-70
2023/06/21 01:11:15;;;;;;;3.13;1.45;;;27.80;48.80;;;;;;5037282;28;20036;-70
2023/06/21 01:13:54;;;;;;;2.33;1.20;;;27.80;48.80;;;;;;5040549;28;20493;-70
2023/06/21 01:16:22;;;;;;;3.30;1.50;;;27.80;48.80;;;;;;5038441;28;20025;-70
2023/06/21 01:18:51;;;;;;;3.28;1.38;;;27.80;49.40;;;;;;5038135;28;20396;-70
2023/06/21 01:21:22;;;;;;;2.47;1.30;;;27.80;48.80;;;;;;5039171;28;20397;-70
2023/06/21 01:24:31;;;;;;;3.67;1.60;;;27.80;48.80;;;;;;5039947;28;20064;-70
2023/06/21 01:27:29;;;;;;;3.60;1.55;;;27.80;48.80;;;;;;4996248;28;20056;-70
2023/06/21 01:29:59;;;;;;;3.27;1.30;;;27.80;48.80;;;;;;4993343;28;20030;-70
2023/06/21 01:32:28;;;;;;;3.10;1.45;;;27.80;48.80;;;;;;5030764;28;20136;-70
2023/06/21 01:34:55;;;;;;;3.08;1.42;;;27.80;48.80;;;;;;5038670;28;20115;-71
2023/06/21 01:37:21;;;;;;;2.53;1.40;;;27.80;48.80;;;;;;5039964;28;20021;-70
2023/06/21 01:39:47;;;;;;;2.10;1.10;;;27.80;48.70;;;;;;5038397;28;20789;-70
2023/06/21 01:42:13;;;;;;;3.15;1.40;;;27.80;48.80;;;;;;5036028;28;20040;-70
2023/06/21 01:44:39;;;;;;;2.85;1.40;;;27.80;48.70;;;;;;5034930;28;20017;-70
2023/06/21 01:47:06;;;;;;;3.10;1.40;;;27.80;48.70;;;;;;5039660;28;20323;-70
2023/06/21 01:49:33;;;;;;;3.05;1.40;;;27.80;48.70;;;;;;5044319;28;20029;-70
2023/06/21 01:51:59;;;;;;;3.13;1.40;;;27.80;48.70;;;;;;5040630;28;20118;-70
2023/06/21 01:54:26;;;;;;;3.92;1.65;;;27.80;48.70;;;;;;5044903;28;20025;-70
2023/06/21 01:56:58;;;;;;;3.13;1.20;;;27.80;48.70;;;;;;5041653;28;20388;-70
2023/06/21 01:59:24;;;;;;;2.90;1.60;;;27.80;48.70;;;;;;5042848;28;20134;-70
2023/06/21 02:01:50;;;;;;;3.38;1.38;;;27.80;48.70;;;;;;5042239;28;20443;-70
2023/06/21 02:04:17;;;;;;;2.83;1.38;;;27.70;49.20;;;;;;5044978;28;20033;-69
2023/06/21 02:06:43;;;;;;;3.08;1.40;;;27.80;48.70;;;;;;5041337;28;20047;-69
2023/06/21 02:09:09;;;;;;;2.15;1.15;;;27.70;48.60;;;;;;5042452;28;20025;-69
2023/06/21 02:11:36;;;;;;;2.55;1.20;;;27.80;48.70;;;;;;5042549;28;20094;-70
2023/06/21 02:14:02;;;;;;;2.30;1.30;;;27.80;48.60;;;;;;5042655;28;20024;-70
2023/06/21 02:16:29;;;;;;;2.30;1.20;;;27.80;48.60;;;;;;5041788;28;20036;-70
2023/06/21 02:18:55;;;;;;;2.65;1.20;;;27.80;48.60;;;;;;5042005;28;20029;-70
2023/06/21 02:21:21;;;;;;;2.25;1.33;;;27.80;48.60;;;;;;5042572;28;20366;-69
2023/06/21 02:23:47;;;;;;;2.80;1.40;;;27.80;49.10;;;;;;5042261;28;20029;-69
2023/06/21 02:26:13;;;;;;;2.35;1.20;;;27.80;48.60;;;;;;5042734;28;20044;-69
2023/06/21 02:28:39;;;;;;;2.72;1.17;;;27.70;48.50;;;;;;5040828;28;20036;-71
2023/06/21 02:31:04;;;;;;;1.70;1.00;;;27.80;48.60;;;;;;5040277;28;20326;-69
2023/06/21 02:33:32;;;;;;;2.47;1.30;;;27.70;48.60;;;;;;5037351;28;20433;-70
2023/06/21 02:35:58;;;;;;;3.20;1.73;;;27.80;48.60;;;;;;5038471;28;20035;-69
2023/06/21 02:38:27;;;;;;;2.85;1.35;;;27.80;48.60;;;;;;5041500;28;20794;-69
2023/06/21 02:40:53;;;;;;;2.10;1.20;;;27.70;48.50;;;;;;5041220;28;20017;-70
2023/06/21 02:43:18;;;;;;;3.17;1.27;;;27.70;48.50;;;;;;5041111;28;20029;-69
2023/06/21 02:45:45;;;;;;;2.70;1.40;;;27.70;48.50;;;;;;5040076;28;20043;-70
2023/06/21 02:48:11;;;;;;;3.88;1.55;;;27.70;48.50;;;;;;5039385;28;20042;-70
2023/06/21 02:50:36;;;;;;;1.83;1.10;;;27.70;48.50;;;;;;5039635;28;20369;-70
2023/06/21 02:53:02;;;;;;;2.33;1.30;;;27.70;48.50;;;;;;5040182;28;20033;-70
2023/06/21 02:55:28;;;;;;;2.88;1.20;;;27.70;48.50;;;;;;5041821;28;20132;-70
2023/06/21 02:57:54;;;;;;;2.75;1.20;;;27.70;48.50;;;;;;5041825;28;20060;-70
2023/06/21 03:00:28;;;;;;;2.90;1.27;;;27.70;48.50;;;;;;5040546;28;20028;-70
2023/06/21 03:03:00;;;;;;;2.75;1.30;;;27.70;48.50;;;;;;5037285;28;20418;-70
2023/06/21 03:05:35;;;;;;;2.08;1.02;;;27.70;48.50;;;;;;5042175;28;20100;-70
2023/06/21 03:08:05;;;;;;;2.30;1.15;;;27.70;48.50;;;;;;5039509;28;20445;-70
2023/06/21 03:10:32;;;;;;;3.33;1.35;;;27.70;48.50;;;;;;5043119;28;20079;-70
2023/06/21 03:12:58;;;;;;;2.53;1.20;;;27.70;48.50;;;;;;5041754;28;20056;-70
2023/06/21 03:15:24;;;;;;;2.38;1.35;;;27.70;48.50;;;;;;5040412;28;20923;-70
2023/06/21 03:17:50;;;;;;;2.67;1.20;;;27.70;48.50;;;;;;5046301;28;20067;-70
2023/06/21 03:20:16;;;;;;;2.75;1.30;;;27.70;48.50;;;;;;5039379;28;20484;-70
2023/06/21 03:22:43;;;;;;;1.50;1.08;;;27.70;48.50;;;;;;5039066;28;20466;-70
2023/06/21 03:25:13;;;;;;;2.33;1.10;;;27.70;48.50;;;;;;5036633;28;20124;-70
2023/06/21 03:27:39;;;;;;;2.28;1.20;;;27.70;48.50;;;;;;5040209;28;20326;-70
2023/06/21 03:30:06;;;;;;;2.08;1.15;;;27.70;48.50;;;;;;5038078;28;20057;-70
2023/06/21 03:32:32;;;;;;;2.53;1.30;;;27.70;48.40;;;;;;5036487;28;20072;-70
2023/06/21 03:34:58;;;;;;;2.80;1.20;;;27.70;48.50;;;;;;5041597;28;20696;-70
2023/06/21 03:37:25;;;;;;;2.40;1.35;;;27.70;48.40;;;;;;5039542;28;20025;-70
2023/06/21 03:39:51;;;;;;;2.65;1.15;;;27.70;48.40;;;;;;5041005;28;20076;-70
2023/06/21 03:42:16;;;;;;;2.85;1.30;;;27.70;48.40;;;;;;5040694;28;20999;-67
2023/06/21 03:44:42;;;;;;;2.10;1.08;;;27.70;48.40;;;;;;5040542;28;20036;-68
2023/06/21 03:47:10;;;;;;;3.45;1.70;;;27.70;48.40;;;;;;5039436;28;20037;-68
2023/06/21 03:49:36;;;;;;;1.95;1.05;;;27.70;48.40;;;;;;5039054;28;20029;-68
2023/06/21 03:52:01;;;;;;;2.80;1.20;;;27.70;48.40;;;;;;5034464;28;20048;-68
2023/06/21 03:54:27;;;;;;;2.22;1.20;;;27.70;48.40;;;;;;5035859;28;20068;-68
2023/06/21 03:56:53;;;;;;;2.60;1.38;;;27.70;48.40;;;;;;5039080;28;20506;-67
2023/06/21 03:59:18;;;;;;;2.30;1.13;;;27.70;48.40;;;;;;5047803;28;20102;-68
2023/06/21 04:01:44;;;;;;;2.20;1.40;;;27.70;48.40;;;;;;5040840;28;20044;-67
2023/06/21 04:04:09;;;;;;;2.50;1.30;;;27.70;48.40;;;;;;5036484;28;20057;-67
2023/06/21 04:06:37;;;;;;;2.17;1.33;;;27.70;48.40;;;;;;5037576;28;20381;-68
2023/06/21 04:09:02;;;;;;;1.52;1.08;;;27.70;48.40;;;;;;5036588;28;20484;-67
2023/06/21 04:11:28;;;;;;;2.20;1.20;;;27.70;48.40;;;;;;5041523;28;20068;-67
2023/06/21 04:13:53;;;;;;;2.17;1.33;;;27.70;48.40;;;;;;5040864;28;20025;-68
2023/06/21 04:16:19;;;;;;;1.67;1.05;;;27.70;48.40;;;;;;5038992;28;20545;-66
2023/06/21 04:18:44;;;;;;;2.78;1.38;;;27.70;48.30;;;;;;5040254;28;20435;-65
2023/06/21 04:21:10;;;;;;;2.03;1.15;;;27.70;48.30;;;;;;5039242;28;20021;-65
2023/06/21 04:23:36;;;;;;;2.38;1.20;;;27.60;48.30;;;;;;5037246;28;20028;-66
2023/06/21 04:26:05;;;;;;;3.08;1.30;;;27.70;48.40;;;;;;5038681;28;20476;-65
2023/06/21 04:28:32;;;;;;;2.50;1.33;;;27.70;48.40;;;;;;5038998;28;20025;-65
2023/06/21 04:30:58;;;;;;;2.33;1.27;;;27.60;48.30;;;;;;5040379;28;20033;-65
2023/06/21 04:33:24;;;;;;;1.92;1.20;;;27.60;48.30;;;;;;5038229;28;20061;-65
2023/06/21 04:35:49;;;;;;;1.95;1.10;;;27.60;48.30;;;;;;5040825;28;20103;-66
2023/06/21 04:38:16;;;;;;;3.15;1.40;;;27.60;48.30;;;;;;5036461;28;20056;-66
2023/06/21 04:40:43;;;;;;;2.55;1.27;;;27.60;48.30;;;;;;5039825;28;20466;-66
2023/06/21 04:43:08;;;;;;;2.10;1.20;;;27.60;48.30;;;;;;5037562;28;20013;-65
2023/06/21 04:45:34;;;;;;;1.90;1.02;;;27.60;48.30;;;;;;5036534;28;20393;-65
2023/06/21 04:48:00;;;;;;;1.88;1.20;;;27.60;48.30;;;;;;5037383;28;20029;-65
2023/06/21 04:50:26;;;;;;;2.00;1.02;;;27.60;48.30;;;;;;5035787;28;20163;-65
2023/06/21 04:52:57;;;;;;;1.80;1.10;;;27.60;48.30;;;;;;5037254;28;20039;-65
2023/06/21 04:55:24;;;;;;;2.53;1.40;;;27.60;48.30;;;;;;5040975;28;20108;-65
2023/06/21 04:57:49;;;;;;;3.53;1.35;;;27.60;48.30;;;;;;5039443;28;20032;-66
2023/06/21 05:00:16;;;;;;;2.22;1.20;;;27.60;48.30;;;;;;5037665;28;20026;-66
2023/06/21 05:02:42;;;;;;;2.22;1.10;;;27.60;48.30;;;;;;5050617;28;20112;-66
2023/06/21 05:05:08;;;;;;;1.75;1.23;;;27.60;48.30;;;;;;5037563;28;20414;-65
2023/06/21 05:07:33;;;;;;;2.70;1.13;;;27.60;48.30;;;;;;5038162;28;20029;-66
2023/06/21 05:09:59;;;;;;;3.00;1.42;;;27.60;48.30;;;;;;5040404;28;20040;-65
2023/06/21 05:12:24;;;;;;;2.95;1.67;;;27.60;48.30;;;;;;5038653;28;20083;-66
2023/06/21 05:14:50;;;;;;;2.20;1.17;;;27.60;48.30;;;;;;5040938;28;20180;-66
2023/06/21 05:17:16;;;;;;;2.35;1.20;;;27.60;48.30;;;;;;5039759;28;20086;-65
2023/06/21 05:19:45;;;;;;;2.55;1.20;;;27.60;48.30;;;;;;5041266;28;20381;-66
2023/06/21 05:22:10;;;;;;;3.15;1.20;;;27.60;48.30;;;;;;5039342;28;20021;-66
2023/06/21 05:24:37;;;;;;;1.98;1.30;;;27.60;48.30;;;;;;5043356;28;20032;-67
2023/06/21 05:27:03;;;;;;;2.42;1.23;;;27.60;48.30;;;;;;5042616;28;20232;-65
2023/06/21 05:29:29;;;;;;;3.33;1.20;;;27.60;48.30;;;;;;5044248;28;20523;-65
2023/06/21 05:31:55;;;;;;;2.03;1.20;;;27.60;48.40;;;;;;5044876;28;20029;-65
2023/06/21 05:34:20;;;;;;;2.60;1.20;;;27.60;48.40;;;;;;5042682;28;20033;-65
2023/06/21 05:36:46;;;;;;;2.03;1.20;;;27.60;48.40;;;;;;5041239;28;20029;-65
2023/06/21 05:39:12;;;;;;;2.28;1.33;;;27.50;48.30;;;;;;5042029;28;20462;-66
2023/06/21 05:41:37;;;;;;;2.80;1.30;;;27.60;48.40;;;;;;5043484;28;20033;-66
2023/06/21 05:44:03;;;;;;;2.53;1.30;;;27.60;48.40;;;;;;5042721;28;20037;-66
2023/06/21 05:46:28;;;;;;;2.35;1.30;;;27.60;48.40;;;;;;5040988;28;20433;-66
2023/06/21 05:48:54;;;;;;;2.47;1.25;;;27.60;48.40;;;;;;5041481;28;20017;-66
2023/06/21 05:51:20;;;;;;;2.25;1.20;;;27.60;48.40;;;;;;5043117;28;20152;-66
2023/06/21 05:53:45;;;;;;;2.15;1.33;;;27.60;48.40;;;;;;5042489;28;20059;-66
2023/06/21 05:56:11;;;;;;;2.10;1.20;;;27.60;48.40;;;;;;5039323;28;20033;-67
2023/06/21 05:58:36;;;;;;;2.95;1.10;;;27.60;48.40;;;;;;5040485;28;20045;-67
2023/06/21 06:01:03;;;;;;;2.35;1.23;;;27.60;48.40;;;;;;5041482;28;20033;-67
2023/06/21 06:03:28;;;;;;;2.95;1.35;;;27.60;48.40;;;;;;5041744;28;20056;-67
2023/06/21 06:05:55;;;;;;;2.25;1.10;;;27.60;48.90;;;;;;5043342;28;20052;-67
2023/06/21 06:08:21;;;;;;;1.80;1.20;;;27.60;48.40;;;;;;5040879;28;20032;-66
2023/06/21 06:10:48;;;;;;;3.10;1.55;;;27.60;48.70;;;;;;5042931;28;20134;-67
2023/06/21 06:13:13;;;;;;;2.45;1.30;;;27.60;48.60;;;;;;5042300;28;20065;-67
2023/06/21 06:15:39;;;;;;;2.35;1.30;;;27.60;48.60;;;;;;5039168;28;20068;-66
2023/06/21 06:18:05;;;;;;;2.33;1.30;;;27.60;48.50;;;;;;5039419;28;20021;-66
2023/06/21 06:20:30;;;;;;;2.03;1.27;;;27.60;48.40;;;;;;5040659;28;20079;-67
2023/06/21 06:22:56;;;;;;;2.15;1.20;;;27.60;48.50;;;;;;5041627;28;20040;-66
2023/06/21 06:25:21;;;;;;;2.47;1.30;;;27.60;48.50;;;;;;5041404;28;20036;-66
2023/06/21 06:27:47;;;;;;;2.22;1.35;;;27.60;48.50;;;;;;5042298;28;20185;-66
2023/06/21 06:30:13;;;;;;;2.45;1.33;;;27.60;48.80;;;;;;5038701;28;20115;-66
2023/06/21 06:32:38;;;;;;;2.75;1.60;;;27.60;48.70;;;;;;5041976;28;20218;-66
2023/06/21 06:35:05;;;;;;;2.00;1.20;;;27.60;48.50;;;;;;5042740;28;20029;-67
2023/06/21 06:37:30;;;;;;;2.20;1.30;;;27.70;48.50;;;;;;5040439;28;20025;-66
2023/06/21 06:39:56;;;;;;;2.17;1.23;;;27.70;48.50;;;;;;5040244;28;20401;-66
2023/06/21 06:42:22;;;;;;;3.28;1.30;;;27.70;48.60;;;;;;5039031;28;20033;-66
2023/06/21 06:44:47;;;;;;;1.85;1.20;;;27.70;48.50;;;;;;5041170;28;20032;-66
2023/06/21 06:47:13;;;;;;;3.83;1.45;;;27.70;48.60;;;;;;5040770;28;20025;-66
2023/06/21 06:49:39;;;;;;;3.85;1.50;;;27.70;48.90;;;;;;5042747;28;20492;-66
2023/06/21 06:52:05;;;;;;;3.45;1.35;;;27.80;49.00;;;;;;5038492;28;20021;-67
2023/06/21 06:54:31;;;;;;;2.38;1.50;;;27.80;48.80;;;;;;5039390;28;20028;-66
2023/06/21 06:56:56;;;;;;;2.50;1.30;;;27.80;48.70;;;;;;5039462;28;20034;-66
2023/06/21 06:59:23;;;;;;;2.47;1.48;;;27.80;48.80;;;;;;5040674;28;20032;-66
2023/06/21 07:01:49;;;;;;;2.42;1.40;;;27.90;49.10;;;;;;5055389;28;20446;-66
2023/06/21 07:04:15;;;;;;;2.55;1.70;;;27.90;48.80;;;;;;5039563;28;20029;-65
2023/06/21 07:06:41;;;;;;;3.33;1.52;;;27.90;48.70;;;;;;5040242;28;20358;-66
2023/06/21 07:09:08;;;;;;;2.67;1.30;;;27.90;48.70;;;;;;5038808;28;20025;-66
2023/06/21 07:11:34;;;;;;;2.63;1.50;;;27.90;48.60;;;;;;5040559;28;20104;-66
2023/06/21 07:13:59;;;;;;;2.13;1.30;;;28.00;48.70;;;;;;5039162;28;20033;-66
2023/06/21 07:16:25;;;;;;;2.85;1.50;;;28.00;48.70;;;;;;5041976;28;20087;-68
2023/06/21 07:18:51;;;;;;;2.67;1.45;;;28.00;48.70;;;;;;5044442;28;20408;-66
2023/06/21 07:21:17;;;;;;;3.78;1.45;;;28.00;48.70;;;;;;5049771;28;20035;-66
2023/06/21 07:23:43;;;;;;;2.38;1.40;;;28.00;48.80;;;;;;5046975;28;20327;-66
2023/06/21 07:26:09;;;;;;;3.03;1.73;;;28.00;48.80;;;;;;5044823;28;20031;-66
2023/06/21 07:28:35;;;;;;;2.40;1.50;;;28.00;48.60;;;;;;5042439;28;20500;-66
2023/06/21 07:31:03;;;;;;;2.60;1.60;;;28.10;48.60;;;;;;5040704;28;20034;-67
2023/06/21 07:33:28;;;;;;;2.42;1.40;;;28.10;48.60;;;;;;5042859;28;20345;-66
2023/06/21 07:35:54;;;;;;;2.65;1.58;;;28.10;48.60;;;;;;5040503;28;20040;-66
2023/06/21 07:38:19;;;;;;;2.10;1.23;;;28.10;48.70;;;;;;5038973;28;20017;-66
2023/06/21 07:40:45;;;;;;;2.20;1.40;;;28.10;48.80;;;;;;5038626;28;20086;-66
2023/06/21 07:43:11;;;;;;;2.53;1.38;;;28.10;49.10;;;;;;5039603;28;20040;-66
2023/06/21 07:45:36;;;;;;;2.25;1.40;;;28.10;49.10;;;;;;5040429;28;20071;-66
2023/06/21 07:48:02;;;;;;;2.50;1.40;;;28.10;48.80;;;;;;5038016;28;20041;-66
2023/06/21 07:50:28;;;;;;;4.35;1.83;;;28.20;48.80;;;;;;5039651;28;20035;-66
2023/06/21 07:52:53;;;;;;;4.88;2.22;;;28.20;49.90;;;;;;5040683;28;20033;-66
2023/06/21 07:55:19;;;;;;;4.38;1.92;;;28.20;49.70;;;;;;5041092;28;20029;-65
2023/06/21 07:57:45;;;;;;;3.60;1.70;;;28.30;49.10;;;;;;5046569;28;20025;-66
2023/06/21 08:00:11;;;;;;;2.75;1.70;;;28.30;49.60;;;;;;5046939;28;20029;-65
2023/06/21 08:02:38;;;;;;;3.70;2.00;;;28.30;49.60;;;;;;5038819;28;20029;-66
2023/06/21 08:05:04;;;;;;;2.63;1.80;;;28.30;49.10;;;;;;5040437;28;20548;-66
2023/06/21 08:07:30;;;;;;;2.75;1.50;;;28.40;49.20;;;;;;5038487;28;20578;-66
2023/06/21 08:09:56;;;;;;;2.65;1.52;;;28.40;49.20;;;;;;5039973;28;20025;-67
2023/06/21 08:12:21;;;;;;;3.75;1.95;;;28.40;49.10;;;;;;5037557;28;20477;-67
2023/06/21 08:14:47;;;;;;;3.58;2.08;;;28.40;49.00;;;;;;5039993;28;20104;-66
2023/06/21 08:17:13;;;;;;;4.20;2.10;;;28.50;49.00;;;;;;5041661;28;20431;-66
2023/06/21 08:19:38;;;;;;;3.78;2.00;;;28.50;48.90;;;;;;5041385;28;20021;-66
2023/06/21 08:22:04;;;;;;;3.40;1.77;;;28.50;48.80;;;;;;5046510;28;20458;-66
2023/06/21 08:24:29;;;;;;;2.42;1.50;;;28.50;48.70;;;;;;5037270;28;20083;-66
2023/06/21 08:26:55;;;;;;;2.55;1.80;;;28.50;48.70;;;;;;5039607;28;20032;-66
2023/06/21 08:29:21;;;;;;;2.72;1.70;;;28.50;48.80;;;;;;5041931;28;20072;-66
2023/06/21 08:31:46;;;;;;;3.22;1.67;;;28.50;48.70;;;;;;5036895;28;20041;-66
2023/06/21 08:34:12;;;;;;;3.88;1.80;;;28.50;48.60;;;;;;5036617;28;20045;-66
2023/06/21 08:36:38;;;;;;;2.80;1.73;;;28.60;48.70;;;;;;5039387;28;20043;-66
2023/06/21 08:39:04;;;;;;;2.78;1.73;;;28.60;48.50;;;;;;5040151;28;20021;-67
2023/06/21 08:41:31;;;;;;;3.38;2.13;;;28.60;48.40;;;;;;5039832;28;20079;-67
2023/06/21 08:43:56;;;;;;;3.03;1.98;;;28.60;48.40;;;;;;5037748;28;20032;-67
2023/06/21 08:46:25;;;;;;;3.17;1.90;;;28.60;48.60;;;;;;5037204;28;20033;-66
2023/06/21 08:48:56;;;;;;;2.38;1.70;;;28.60;48.60;;;;;;5041071;28;20017;-67
2023/06/21 08:51:22;;;;;;;3.00;1.90;;;28.60;48.50;;;;;;5039339;28;20029;-66
2023/06/21 08:53:59;;;;;;;3.17;1.83;;;28.70;48.50;;;;;;5038225;28;20029;-66
2023/06/21 08:56:28;;;;;;;2.45;1.80;;;28.70;48.50;;;;;;5038934;28;20600;-66
2023/06/21 08:59:05;;;;;;;3.60;2.33;;;28.70;48.30;;;;;;5038907;28;20055;-66
2023/06/21 09:01:57;;;;;;;2.88;1.90;;;28.70;48.30;;;;;;5040331;28;20048;-67
2023/06/21 09:04:25;;;;;;;2.85;1.80;;;28.70;48.20;;;;;;5033781;28;20117;-66
2023/06/21 09:06:51;;;;;;;3.50;2.08;;;28.70;48.20;;;;;;5039598;28;20031;-66
2023/06/21 09:09:18;;;;;;;2.63;1.75;;;28.80;48.20;;;;;;5039362;28;20033;-66
2023/06/21 09:11:46;;;;;;;3.65;1.70;;;28.80;48.20;;;;;;5037964;28;20330;-67
2023/06/21 09:14:12;;;;;;;2.03;1.50;;;28.80;48.30;;;;;;5038421;28;20021;-66
2023/06/21 09:16:39;;;;;;;3.67;1.83;;;28.80;48.20;;;;;;5042092;28;20056;-66
2023/06/21 09:19:05;;;;;;;2.90;1.90;;;28.80;48.20;;;;;;5041161;28;20021;-66
2023/06/21 09:21:32;;;;;;;3.28;1.85;;;28.80;48.20;;;;;;5038579;28;20385;-66
2023/06/21 09:23:58;;;;;;;2.67;1.95;;;28.80;48.10;;;;;;5038600;28;20021;-66
2023/06/21 09:26:23;;;;;;;4.07;2.00;;;28.90;48.10;;;;;;5038756;28;20045;-66
2023/06/21 09:28:49;;;;;;;2.20;1.70;;;28.90;48.10;;;;;;5037913;28;20045;-67
2023/06/21 09:31:15;;;;;;;5.43;1.85;;;28.80;48.00;;;;;;5040948;28;20495;-67
2023/06/21 09:33:42;;;;;;;3.05;1.80;;;28.90;48.00;;;;;;5039157;28;20045;-66
2023/06/21 09:36:08;;;;;;;2.70;1.90;;;28.90;48.00;;;;;;5037342;28;20033;-65
2023/06/21 09:38:36;;;;;;;3.03;1.85;;;28.90;48.00;;;;;;5038945;28;20426;-65
2023/06/21 09:41:04;;;;;;;2.70;1.90;;;28.90;48.00;;;;;;5035992;28;20061;-65
2023/06/21 09:43:30;;;;;;;2.67;1.60;;;28.90;48.00;;;;;;5038927;28;20503;-65
2023/06/21 09:46:07;;;;;;;2.90;1.90;;;29.00;48.10;;;;;;5039119;28;20068;-65
2023/06/21 09:48:34;;;;;;;2.80;1.70;;;29.00;48.00;;;;;;5038859;28;20028;-69
2023/06/21 09:51:04;;;;;;;2.90;1.80;;;28.90;47.90;;;;;;5039151;28;20049;-68
2023/06/21 09:53:30;;;;;;;3.15;1.70;;;29.00;47.90;;;;;;5038842;28;20100;-69
2023/06/21 09:55:56;;;;;;;2.83;1.90;;;28.90;47.70;;;;;;5038834;28;20112;-70
2023/06/21 09:58:22;;;;;;;2.92;2.13;;;29.00;47.80;;;;;;5038001;28;20033;-68
2023/06/21 10:00:48;;;;;;;3.17;2.13;;;29.00;47.80;;;;;;5038149;28;20036;-68
2023/06/21 10:03:14;;;;;;;3.35;1.90;;;29.00;47.80;;;;;;5038207;28;20025;-68
2023/06/21 10:05:56;;;;;;;2.97;1.95;;;29.00;48.10;;;;;;5039293;28;20075;-69
2023/06/21 10:08:23;;;;;;;2.83;1.73;;;29.00;48.20;;;;;;5039516;28;20029;-69
2023/06/21 10:10:49;;;;;;;3.53;1.92;;;29.00;48.10;;;;;;5041739;28;20036;-69
2023/06/21 10:13:14;;;;;;;4.00;1.90;;;29.00;48.00;;;;;;5041673;28;20029;-68
2023/06/21 10:15:45;;;;;;;2.80;2.00;;;29.00;48.00;;;;;;5041760;28;20056;-68
2023/06/21 10:18:12;;;;;;;3.42;2.20;;;29.00;47.90;;;;;;5039444;28;20021;-67
2023/06/21 10:20:40;;;;;;;2.63;1.90;;;29.00;47.90;;;;;;5039668;28;20036;-68
2023/06/21 10:23:08;;;;;;;3.05;2.00;;;29.10;47.90;;;;;;5041760;28;20479;-67
2023/06/21 10:25:35;;;;;;;4.38;2.08;;;29.00;47.90;;;;;;5039974;28;20029;-68
2023/06/21 10:28:04;;;;;;;3.15;2.10;;;29.10;47.80;;;;;;5041126;28;20511;-67
2023/06/21 10:30:32;;;;;;;;;;;29.10;47.70;;;;;;5042177;28;20477;-67
2023/06/21 10:33:01;;;;;;;4.38;2.20;;;29.10;47.70;;;;;;5041018;28;20437;-67
2023/06/21 10:35:27;;;;;;;;;;;29.10;47.70;;;;;;5042066;28;20037;-66
2023/06/21 10:38:01;;;;;;;2.80;1.92;;;29.10;47.70;;;;;;5056036;28;19932;-67
2023/06/21 10:40:28;;;;;;;2.97;2.08;;;29.10;47.70;;;;;;5038782;28;20025;-66
2023/06/21 10:42:56;;;;;;;3.35;1.95;;;29.00;47.60;;;;;;5038010;28;20028;-66
2023/06/21 10:45:21;;;;;;;2.70;2.05;;;29.10;47.70;;;;;;5041025;28;20500;-67
2023/06/21 10:47:48;;;;;;;3.20;2.00;;;29.10;47.70;;;;;;5040608;28;20142;-67
2023/06/21 10:50:14;;;;;;;3.47;2.22;;;29.10;47.70;;;;;;5040861;28;20029;-67
2023/06/21 10:52:40;;;;;;;2.65;1.70;;;29.00;47.60;;;;;;5042551;28;20025;-67
2023/06/21 10:55:06;;;;;;;3.50;1.90;;;29.10;47.60;;;;;;5041028;28;20017;-66
2023/06/21 10:57:34;;;;;;;3.63;2.05;;;29.00;47.50;;;;;;5042318;28;20024;-67
2023/06/21 11:00:05;;;;;;;3.78;2.10;;;29.10;47.60;;;;;;5041502;28;20045;-66
2023/06/21 11:02:32;;;;;;;2.97;2.08;;;29.00;47.50;;;;;;5040673;28;20055;-67
2023/06/21 11:05:21;;;;;;;2.88;2.00;;;29.10;48.20;;;;;;5041908;28;20488;-65
2023/06/21 11:07:53;;;;;;;;;;;29.10;48.00;;;;;;5040487;28;20071;-66
2023/06/21 11:10:29;;;;;;;3.83;2.17;;;29.10;47.80;;;;;;5039714;28;20007;-66
2023/06/21 11:12:56;;;;;;;3.65;2.03;;;29.10;47.90;;;;;;5040609;28;20033;-66
2023/06/21 11:15:24;;;;;;;4.68;1.88;;;29.10;47.80;;;;;;5040381;28;20064;-66
2023/06/21 11:18:20;;;;;;;3.10;1.80;;;29.10;47.90;;;;;;5038793;28;20389;-66
2023/06/21 11:20:50;;;;;;;3.35;1.95;;;29.20;47.90;;;;;;5039751;28;20538;-65
2023/06/21 11:23:23;;;;;;;3.75;2.13;;;29.20;47.90;;;;;;5041211;28;20439;-65
2023/06/21 11:25:53;;;;;;;3.10;2.00;;;29.20;47.70;;;;;;5038399;28;20048;-65
2023/06/21 11:28:19;;;;;;;3.80;2.10;;;29.20;47.60;;;;;;5036875;28;20555;-65
2023/06/21 11:31:06;;;;;;;3.33;2.10;;;29.20;47.60;;;;;;5039303;28;20166;-65
2023/06/21 11:33:54;;;;;;;4.00;2.22;;;29.20;47.70;;;;;;5041210;28;20158;-66
2023/06/21 11:36:28;;;;;;;4.03;1.92;;;29.20;47.70;;;;;;5039653;28;20029;-65
2023/06/21 11:39:09;;;;;;;3.08;2.05;;;29.20;47.70;;;;;;5037146;28;20029;-65
2023/06/21 11:41:43;;;;;;;3.60;1.88;;;29.20;47.90;;;;;;5038313;28;20025;-65
2023/06/21 11:44:20;;;;;;;3.20;2.10;;;29.20;47.90;;;;;;5041079;28;20098;-65
2023/06/21 11:46:47;;;;;;;3.95;2.17;;;29.20;47.70;;;;;;5039097;28;20041;-67
2023/06/21 11:49:13;;;;;;;4.05;2.05;;;29.20;47.60;;;;;;5040257;28;20431;-66
2023/06/21 11:52:03;;;;;;;4.47;2.25;;;29.20;47.60;;;;;;5037887;28;20092;-66
2023/06/21 11:54:36;;;;;;;3.97;2.00;;;29.20;47.50;;;;;;5036086;28;20041;-65
2023/06/21 11:57:08;;;;;;;3.70;2.00;;;29.20;47.70;;;;;;5039152;28;20031;-66
2023/06/21 11:59:35;;;;;;;6.55;2.10;;;29.20;47.70;;;;;;5038461;28;20022;-66
2023/06/21 12:02:12;;;;;;;2.75;1.98;;;29.20;47.80;;;;;;5039814;28;20025;-66
2023/06/21 12:04:40;;;;;;;3.28;2.10;;;29.30;47.70;;;;;;5038509;28;20032;-65
2023/06/21 12:07:06;;;;;;;3.80;2.42;;;29.30;47.70;;;;;;5040661;28;20053;-66
2023/06/21 12:09:32;;;;;;;3.60;2.50;;;29.30;47.80;;;;;;5040620;28;20481;-66
2023/06/21 12:11:58;;;;;;;3.63;2.08;;;29.30;47.70;;;;;;5037414;28;20036;-66
2023/06/21 12:14:23;;;;;;;3.40;2.20;;;29.30;47.60;;;;;;5038177;28;20155;-66
2023/06/21 12:16:50;;;;;;;3.65;2.10;;;29.20;47.50;;;;;;5038237;28;20057;-66
2023/06/21 12:19:15;;;;;;;4.35;2.10;;;29.30;47.70;;;;;;5035978;28;20021;-66
2023/06/21 12:21:42;;;;;;;3.17;2.10;;;29.30;47.80;;;;;;5039325;28;20558;-66
2023/06/21 12:24:08;;;;;;;3.05;1.85;;;29.30;47.70;;;;;;5040522;28;20442;-66
2023/06/21 12:26:50;;;;;;;4.03;2.20;;;29.20;47.60;;;;;;5037823;28;20116;-66
2023/06/21 12:29:16;;;;;;;3.55;2.20;;;29.20;47.80;;;;;;5038069;28;20123;-67
2023/06/21 12:31:45;;;;;;;3.55;1.83;;;29.30;47.80;;;;;;5039927;28;20056;-66
2023/06/21 12:34:15;;;;;;;3.28;1.90;;;29.30;47.70;;;;;;5038171;28;20041;-65
2023/06/21 12:36:43;;;;;;;4.10;2.20;;;29.30;47.70;;;;;;5037021;28;20369;-65
2023/06/21 12:39:09;;;;;;;3.20;1.90;;;29.30;47.80;;;;;;5038122;28;20025;-66
2023/06/21 12:41:35;;;;;;;2.80;1.85;;;29.30;47.80;;;;;;5036549;28;20531;-66
2023/06/21 12:44:02;;;;;;;2.72;1.83;;;29.30;47.70;;;;;;5041784;28;20025;-65
2023/06/21 12:46:39;;;;;;;4.43;2.05;;;29.30;47.70;;;;;;5037790;28;20021;-66
2023/06/21 12:49:05;;;;;;;4.10;2.13;;;29.30;47.70;;;;;;5038549;28;20559;-66
2023/06/21 12:51:40;;;;;;;3.97;2.00;;;29.20;47.70;;;;;;5053714;28;20061;-66